createdAt,value
2018-11-11T00:00:08.825Z,289.93
2018-11-11T00:00:43.578Z,241.17
2018-11-11T00:01:18.119Z,241.30
2018-11-11T00:01:52.658Z,189.20
2018-11-11T00:02:27.319Z,188.30
2018-11-11T00:03:02.220Z,229.05
2018-11-11T00:03:36.865Z,285.48
2018-11-11T00:04:11.537Z,241.70
2018-11-11T00:04:46.080Z,246.30
2018-11-11T00:05:20.797Z,215.97
2018-11-11T00:05:55.398Z,226.35
2018-11-11T00:06:30.137Z,250.87
2018-11-11T00:07:04.838Z,324.30
2018-11-11T00:07:39.757Z,327.98
2018-11-11T00:08:14.277Z,280.52
2018-11-11T00:08:49.105Z,196.32
2018-11-11T00:09:23.738Z,204.30
2018-11-11T00:09:58.638Z,214.97
2018-11-11T00:10:33.437Z,199.02
2018-11-11T00:11:08.181Z,195.40
2018-11-11T00:11:42.897Z,204.70
2018-11-11T00:12:17.478Z,199.17
2018-11-11T00:12:52.298Z,191.12
2018-11-11T00:13:27.085Z,203.12
2018-11-11T00:14:01.918Z,213.37
2018-11-11T00:14:36.626Z,173.68
2018-11-11T00:15:13.858Z,193.65
2018-11-11T00:15:48.540Z,174.57
2018-11-11T00:16:23.449Z,171.10
2018-11-11T00:16:58.338Z,227.25
2018-11-11T00:17:32.940Z,191.80
2018-11-11T00:18:07.826Z,191.65
2018-11-11T00:18:42.519Z,216.38
2018-11-11T00:19:17.458Z,200.80
2018-11-11T00:19:52.247Z,196.05
2018-11-11T00:20:27.218Z,225.82
2018-11-11T00:21:02.138Z,219.22
2018-11-11T00:21:37.292Z,222.22
2018-11-11T00:22:12.446Z,199.15
2018-11-11T00:22:47.360Z,179.65
2018-11-11T00:23:22.618Z,175.12
2018-11-11T00:23:57.897Z,199.15
2018-11-11T00:24:33.299Z,190.15
2018-11-11T00:25:08.758Z,202.95
2018-11-11T00:25:44.921Z,210.65
2018-11-11T00:26:20.638Z,182.30
2018-11-11T00:26:55.799Z,185.25
2018-11-11T00:28:34.387Z,170.22
2018-11-11T00:29:10.041Z,154.50
2018-11-11T00:29:44.998Z,178.85
2018-11-11T00:30:20.597Z,230.50
2018-11-11T00:30:55.698Z,156.20
2018-11-11T00:31:30.799Z,178.62
2018-11-11T00:32:05.738Z,210.15
2018-11-11T00:32:41.317Z,201.42
2018-11-11T00:33:16.606Z,179.12
2018-11-11T00:33:52.140Z,205.40
2018-11-11T00:34:27.278Z,176.68
2018-11-11T00:35:02.079Z,153.68
2018-11-11T00:35:36.806Z,192.70
2018-11-11T00:36:11.718Z,183.40
2018-11-11T00:36:46.797Z,150.78
2018-11-11T00:37:21.437Z,167.00
2018-11-11T00:37:56.259Z,159.93
2018-11-11T00:38:30.998Z,164.32
2018-11-11T00:39:07.445Z,169.57
2018-11-11T00:39:42.446Z,184.97
2018-11-11T00:40:17.642Z,178.68
2018-11-11T00:40:52.617Z,188.62
2018-11-11T00:41:27.385Z,201.18
2018-11-11T00:42:02.117Z,383.60
2018-11-11T00:42:36.920Z,273.98
2018-11-11T00:43:11.958Z,312.77
2018-11-11T00:43:46.939Z,290.68
2018-11-11T00:44:21.745Z,299.35
2018-11-11T00:44:56.559Z,322.02
2018-11-11T00:45:31.498Z,317.13
2018-11-11T00:46:06.345Z,302.25
2018-11-11T00:46:41.006Z,342.60
2018-11-11T00:47:16.485Z,310.38
2018-11-11T00:47:51.266Z,306.38
2018-11-11T00:48:26.138Z,297.35
2018-11-11T00:49:00.918Z,278.60
2018-11-11T00:49:35.757Z,291.55
2018-11-11T00:50:11.659Z,281.13
2018-11-11T00:50:46.687Z,302.02
2018-11-11T00:51:21.557Z,266.35
2018-11-11T00:51:56.577Z,272.52
2018-11-11T00:52:31.425Z,265.65
2018-11-11T00:53:06.237Z,260.48
2018-11-11T00:53:41.202Z,264.17
2018-11-11T00:54:15.857Z,257.25
2018-11-11T00:54:50.818Z,271.70
2018-11-11T00:55:25.637Z,269.95
2018-11-11T00:56:00.617Z,277.93
2018-11-11T00:56:35.339Z,309.65
2018-11-11T00:57:10.481Z,247.12
2018-11-11T00:57:45.697Z,264.90
2018-11-11T00:58:20.667Z,289.75
2018-11-11T00:58:55.378Z,269.35
2018-11-11T00:59:29.998Z,319.75
2018-11-11T01:00:05.078Z,293.90
2018-11-11T01:00:39.974Z,317.62
2018-11-11T01:01:14.718Z,319.27
2018-11-11T01:01:49.598Z,321.15
2018-11-11T01:02:24.458Z,310.10
2018-11-11T01:02:59.194Z,327.75
2018-11-11T01:03:34.005Z,352.70
2018-11-11T01:04:08.778Z,303.32
2018-11-11T01:04:43.618Z,333.87
2018-11-11T01:05:18.377Z,306.05
2018-11-11T01:05:53.218Z,259.27
2018-11-11T01:06:27.941Z,237.78
2018-11-11T01:07:02.567Z,246.82
2018-11-11T01:07:37.741Z,272.98
2018-11-11T01:08:12.318Z,246.97
2018-11-11T01:08:47.420Z,276.42
2018-11-11T01:09:22.759Z,398.80
2018-11-11T01:09:57.478Z,310.40
2018-11-11T01:10:32.457Z,305.77
2018-11-11T01:11:07.377Z,314.60
2018-11-11T01:11:42.239Z,334.12
2018-11-11T01:12:17.019Z,320.37
2018-11-11T01:12:52.265Z,349.90
2018-11-11T01:13:27.618Z,350.93
2018-11-11T01:14:02.938Z,349.20
2018-11-11T01:14:38.138Z,368.75
2018-11-11T01:15:15.165Z,365.55
2018-11-11T01:15:50.258Z,385.57
2018-11-11T01:16:25.317Z,395.85
2018-11-11T01:17:00.477Z,433.60
2018-11-11T01:17:35.158Z,433.60
2018-11-11T01:18:10.086Z,431.17
2018-11-11T01:18:45.038Z,439.97
2018-11-11T01:19:19.797Z,418.27
2018-11-11T01:19:54.878Z,409.30
2018-11-11T01:20:29.747Z,404.07
2018-11-11T01:21:04.500Z,443.25
2018-11-11T01:21:39.438Z,421.50
2018-11-11T01:22:14.425Z,386.35
2018-11-11T01:22:50.039Z,403.95
2018-11-11T01:23:24.898Z,405.55
2018-11-11T01:23:59.779Z,343.90
2018-11-11T01:24:34.497Z,360.68
2018-11-11T01:25:11.438Z,300.52
2018-11-11T01:25:46.217Z,298.23
2018-11-11T01:26:21.098Z,289.02
2018-11-11T01:26:56.084Z,307.52
2018-11-11T01:27:30.957Z,314.60
2018-11-11T01:28:05.957Z,301.62
2018-11-11T01:28:40.945Z,291.20
2018-11-11T01:29:15.598Z,311.62
2018-11-11T01:29:50.458Z,310.48
2018-11-11T01:30:25.477Z,275.57
2018-11-11T01:31:00.159Z,382.15
2018-11-11T01:31:35.077Z,425.65
2018-11-11T01:32:09.826Z,385.27
2018-11-11T01:32:44.700Z,300.40
2018-11-11T01:33:19.597Z,314.50
2018-11-11T01:33:54.153Z,300.82
2018-11-11T01:34:29.098Z,302.80
2018-11-11T01:35:04.566Z,335.63
2018-11-11T01:35:39.299Z,329.02
2018-11-11T01:36:13.861Z,318.52
2018-11-11T01:36:48.958Z,310.70
2018-11-11T01:37:23.557Z,286.43
2018-11-11T01:37:58.440Z,273.60
2018-11-11T01:38:33.095Z,282.80
2018-11-11T01:39:10.098Z,256.45
2018-11-11T01:39:45.077Z,249.98
2018-11-11T01:40:19.757Z,234.12
2018-11-11T01:40:54.603Z,246.95
2018-11-11T01:41:29.179Z,234.62
2018-11-11T01:42:03.959Z,232.75
2018-11-11T01:42:38.959Z,241.45
2018-11-11T01:43:13.938Z,233.30
2018-11-11T01:43:48.658Z,231.38
2018-11-11T01:44:23.357Z,273.10
2018-11-11T01:44:58.298Z,303.15
2018-11-11T01:45:32.920Z,402.37
2018-11-11T01:46:07.940Z,349.10
2018-11-11T01:46:42.687Z,404.25
2018-11-11T01:47:17.378Z,385.90
2018-11-11T01:47:52.298Z,403.23
2018-11-11T01:48:27.140Z,414.90
2018-11-11T01:49:01.937Z,364.63
2018-11-11T01:49:36.885Z,321.85
2018-11-11T01:50:12.377Z,354.07
2018-11-11T01:50:47.319Z,354.60
2018-11-11T01:51:22.537Z,346.73
2018-11-11T01:51:57.378Z,356.25
2018-11-11T01:52:32.277Z,326.75
2018-11-11T01:53:07.598Z,375.52
2018-11-11T01:53:42.699Z,373.50
2018-11-11T01:54:17.318Z,372.37
2018-11-11T01:54:52.218Z,367.43
2018-11-11T01:55:27.257Z,330.75
2018-11-11T01:56:02.097Z,348.13
2018-11-11T01:56:37.097Z,344.20
2018-11-11T01:57:12.158Z,312.70
2018-11-11T01:57:46.978Z,294.67
2018-11-11T01:58:21.939Z,291.50
2018-11-11T01:58:56.859Z,274.00
2018-11-11T01:59:31.457Z,290.52
2018-11-11T02:00:07.474Z,362.27
2018-11-11T02:00:41.999Z,371.30
2018-11-11T02:01:16.658Z,369.87
2018-11-11T02:01:51.461Z,283.60
2018-11-11T02:02:26.018Z,270.35
2018-11-11T02:03:01.078Z,294.18
2018-11-11T02:03:36.178Z,366.12
2018-11-11T02:04:11.019Z,335.75
2018-11-11T02:04:45.918Z,360.05
2018-11-11T02:05:20.678Z,318.25
2018-11-11T02:05:55.678Z,284.62
2018-11-11T02:06:30.605Z,280.15
2018-11-11T02:07:05.738Z,281.23
2018-11-11T02:07:41.226Z,291.08
2018-11-11T02:08:16.799Z,281.52
2018-11-11T02:08:51.837Z,256.13
2018-11-11T02:09:27.161Z,293.58
2018-11-11T02:10:02.140Z,239.55
2018-11-11T02:10:37.199Z,274.10
2018-11-11T02:11:12.139Z,262.50
2018-11-11T02:11:47.158Z,298.40
2018-11-11T02:12:21.760Z,261.92
2018-11-11T02:12:56.778Z,324.00
2018-11-11T02:13:32.738Z,258.98
2018-11-11T02:14:07.518Z,281.70
2018-11-11T02:14:42.459Z,296.70
2018-11-11T02:15:18.037Z,304.98
2018-11-11T02:15:52.938Z,278.18
2018-11-11T02:16:28.017Z,295.82
2018-11-11T02:17:02.957Z,331.02
2018-11-11T02:17:37.745Z,324.30
2018-11-11T02:18:12.978Z,327.62
2018-11-11T02:18:47.777Z,330.50
2018-11-11T02:19:22.626Z,285.80
2018-11-11T02:19:58.897Z,310.02
2018-11-11T02:20:33.878Z,305.87
2018-11-11T02:21:09.098Z,328.75
2018-11-11T02:21:43.950Z,355.43
2018-11-11T02:22:18.828Z,366.85
2018-11-11T02:22:53.440Z,360.48
2018-11-11T02:23:28.539Z,391.60
2018-11-11T02:24:03.742Z,311.65
2018-11-11T02:24:38.625Z,322.35
2018-11-11T02:25:14.017Z,286.27
2018-11-11T02:25:49.849Z,293.55
2018-11-11T02:26:24.658Z,352.07
2018-11-11T02:26:59.577Z,349.52
2018-11-11T02:27:34.459Z,365.48
2018-11-11T02:28:09.638Z,379.50
2018-11-11T02:28:44.517Z,412.25
2018-11-11T02:29:19.701Z,390.77
2018-11-11T02:29:54.477Z,461.62
2018-11-11T02:30:29.586Z,399.02
2018-11-11T02:31:04.617Z,426.43
2018-11-11T02:31:39.718Z,377.18
2018-11-11T02:32:14.727Z,349.90
2018-11-11T02:32:49.518Z,349.77
2018-11-11T02:33:24.434Z,389.70
2018-11-11T02:33:59.479Z,342.77
2018-11-11T02:34:34.257Z,332.27
2018-11-11T02:35:09.258Z,385.30
2018-11-11T02:35:44.558Z,371.35
2018-11-11T02:36:19.199Z,379.15
2018-11-11T02:36:54.129Z,444.82
2018-11-11T02:37:29.219Z,392.30
2018-11-11T02:38:03.958Z,322.37
2018-11-11T02:38:38.706Z,284.85
2018-11-11T02:39:13.639Z,256.10
2018-11-11T02:39:48.561Z,267.50
2018-11-11T02:40:23.581Z,272.82
2018-11-11T02:40:58.603Z,266.17
2018-11-11T02:41:33.899Z,300.50
2018-11-11T02:42:08.821Z,293.45
2018-11-11T02:42:43.998Z,272.50
2018-11-11T02:43:19.077Z,281.57
2018-11-11T02:43:54.166Z,246.95
2018-11-11T02:44:29.178Z,300.68
2018-11-11T02:45:04.179Z,332.95
2018-11-11T02:45:39.059Z,312.25
2018-11-11T02:46:14.918Z,274.02
2018-11-11T02:46:49.819Z,289.77
2018-11-11T02:47:24.658Z,306.68
2018-11-11T02:47:59.638Z,241.63
2018-11-11T02:48:34.443Z,245.67
2018-11-11T02:49:09.159Z,267.75
2018-11-11T02:49:44.218Z,271.37
2018-11-11T02:50:19.961Z,277.68
2018-11-11T02:50:55.078Z,257.62
2018-11-11T02:51:30.357Z,240.72
2018-11-11T02:52:05.458Z,229.65
2018-11-11T02:52:40.799Z,233.80
2018-11-11T02:53:15.497Z,237.93
2018-11-11T02:53:50.378Z,209.92
2018-11-11T02:54:25.627Z,247.75
2018-11-11T02:55:00.518Z,224.65
2018-11-11T02:55:35.584Z,240.03
2018-11-11T02:56:10.641Z,238.28
2018-11-11T02:56:45.438Z,254.28
2018-11-11T02:57:20.505Z,238.92
2018-11-11T02:57:55.338Z,249.35
2018-11-11T02:58:30.145Z,260.57
2018-11-11T02:59:05.177Z,301.52
2018-11-11T02:59:39.998Z,378.92
2018-11-11T03:00:16.239Z,269.95
2018-11-11T03:00:51.217Z,261.85
2018-11-11T03:01:26.485Z,314.25
2018-11-11T03:02:01.459Z,350.13
2018-11-11T03:02:36.708Z,280.15
2018-11-11T03:03:11.994Z,252.38
2018-11-11T03:03:46.898Z,250.68
2018-11-11T03:04:21.947Z,246.80
2018-11-11T03:04:56.920Z,289.80
2018-11-11T03:05:31.818Z,273.30
2018-11-11T03:06:07.106Z,252.78
2018-11-11T03:06:42.266Z,241.78
2018-11-11T03:07:16.898Z,253.50
2018-11-11T03:07:51.598Z,244.18
2018-11-11T03:08:26.159Z,250.93
2018-11-11T03:09:01.239Z,226.50
2018-11-11T03:09:35.837Z,237.17
2018-11-11T03:10:11.438Z,232.77
2018-11-11T03:10:45.979Z,230.18
2018-11-11T03:11:20.541Z,248.25
2018-11-11T03:11:55.799Z,250.03
2018-11-11T03:12:31.337Z,311.70
2018-11-11T03:13:06.541Z,314.80
2018-11-11T03:13:41.438Z,263.68
2018-11-11T03:14:16.617Z,251.25
2018-11-11T03:14:51.758Z,257.57
2018-11-11T03:15:26.765Z,234.15
2018-11-11T03:16:01.798Z,299.27
2018-11-11T03:16:37.026Z,283.62
2018-11-11T03:17:12.878Z,244.53
2018-11-11T03:17:48.643Z,240.85
2018-11-11T03:18:24.838Z,196.32
2018-11-11T03:19:00.166Z,217.85
2018-11-11T03:19:35.298Z,265.92
2018-11-11T03:20:11.478Z,244.77
2018-11-11T03:20:47.506Z,230.12
2018-11-11T03:21:22.559Z,211.68
2018-11-11T03:21:57.781Z,245.12
2018-11-11T03:22:34.401Z,215.20
2018-11-11T03:23:09.818Z,229.43
2018-11-11T03:23:45.257Z,217.03
2018-11-11T03:24:20.565Z,222.60
2018-11-11T03:24:55.978Z,207.00
2018-11-11T03:25:31.139Z,206.78
2018-11-11T03:26:07.037Z,203.50
2018-11-11T03:26:42.117Z,209.67
2018-11-11T03:27:17.237Z,194.10
2018-11-11T03:27:52.961Z,198.17
2018-11-11T03:28:28.339Z,237.93
2018-11-11T03:29:04.459Z,229.75
2018-11-11T03:29:40.179Z,221.62
2018-11-11T03:30:16.937Z,204.20
2018-11-11T03:30:52.697Z,198.95
2018-11-11T03:31:28.305Z,168.68
2018-11-11T03:32:03.379Z,193.45
2018-11-11T03:32:38.853Z,243.60
2018-11-11T03:33:14.346Z,306.63
2018-11-11T03:33:49.740Z,283.00
2018-11-11T03:34:25.378Z,203.05
2018-11-11T03:35:00.658Z,200.00
2018-11-11T03:35:35.777Z,204.55
2018-11-11T03:36:11.585Z,242.05
2018-11-11T03:36:46.619Z,204.63
2018-11-11T03:37:22.477Z,184.60
2018-11-11T03:37:58.018Z,277.90
2018-11-11T03:38:33.578Z,420.05
2018-11-11T03:39:10.601Z,306.25
2018-11-11T03:39:45.819Z,337.98
2018-11-11T03:40:22.726Z,444.28
2018-11-11T03:40:58.120Z,494.23
2018-11-11T03:41:34.457Z,237.35
2018-11-11T03:42:10.098Z,257.07
2018-11-11T03:42:46.343Z,177.75
2018-11-11T03:43:21.748Z,190.82
2018-11-11T03:43:57.978Z,188.55
2018-11-11T03:44:33.400Z,215.22
2018-11-11T03:45:10.418Z,198.65
2018-11-11T03:45:45.598Z,194.57
2018-11-11T03:46:21.657Z,201.40
2018-11-11T03:46:56.679Z,224.50
2018-11-11T03:47:32.218Z,203.22
2018-11-11T03:48:07.445Z,178.53
2018-11-11T03:48:42.779Z,215.30
2018-11-11T03:49:18.398Z,197.45
2018-11-11T03:49:53.919Z,211.80
2018-11-11T03:50:29.337Z,195.25
2018-11-11T03:51:10.847Z,165.62
2018-11-11T03:51:45.935Z,174.60
2018-11-11T03:52:22.218Z,181.02
2018-11-11T03:52:57.617Z,204.75
2018-11-11T03:53:33.178Z,210.38
2018-11-11T03:54:08.565Z,236.25
2018-11-11T03:54:44.697Z,218.50
2018-11-11T03:55:20.317Z,187.92
2018-11-11T03:55:55.420Z,200.28
2018-11-11T03:56:31.678Z,222.07
2018-11-11T03:57:07.417Z,212.42
2018-11-11T03:57:42.657Z,206.85
2018-11-11T03:58:17.959Z,276.10
2018-11-11T03:58:53.482Z,219.50
2018-11-11T03:59:28.679Z,190.95
2018-11-11T04:00:04.718Z,218.93
2018-11-11T04:00:39.979Z,246.62
2018-11-11T04:01:15.299Z,268.60
2018-11-11T04:01:50.738Z,220.42
2018-11-11T04:02:25.945Z,286.35
2018-11-11T04:03:01.602Z,221.10
2018-11-11T04:03:36.478Z,190.20
2018-11-11T04:04:11.657Z,211.95
2018-11-11T04:04:46.945Z,224.67
2018-11-11T04:05:23.578Z,231.28
2018-11-11T04:05:59.058Z,211.22
2018-11-11T04:06:34.405Z,198.10
2018-11-11T04:07:10.538Z,185.22
2018-11-11T04:07:46.865Z,193.90
2018-11-11T04:08:22.318Z,217.35
2018-11-11T04:08:57.303Z,188.45
2018-11-11T04:09:32.959Z,198.87
2018-11-11T04:10:10.758Z,182.35
2018-11-11T04:10:46.081Z,177.32
2018-11-11T04:11:21.457Z,170.90
2018-11-11T04:11:56.618Z,180.85
2018-11-11T04:12:31.578Z,218.30
2018-11-11T04:13:06.860Z,204.45
2018-11-11T04:13:41.897Z,173.70
2018-11-11T04:14:17.725Z,195.20
2018-11-11T04:14:52.778Z,198.87
2018-11-11T04:15:28.365Z,209.07
2018-11-11T04:16:03.479Z,195.60
2018-11-11T04:16:39.177Z,195.18
2018-11-11T04:17:14.398Z,206.65
2018-11-11T04:17:49.765Z,219.00
2018-11-11T04:18:25.419Z,231.00
2018-11-11T04:19:00.646Z,193.35
2018-11-11T04:19:36.957Z,157.90
2018-11-11T04:20:15.757Z,174.82
2018-11-11T04:20:50.943Z,187.30
2018-11-11T04:21:26.198Z,168.70
2018-11-11T04:22:05.560Z,187.10
2018-11-11T04:22:41.720Z,199.38
2018-11-11T04:23:18.806Z,173.87
2018-11-11T04:23:53.997Z,155.03
2018-11-11T04:24:29.405Z,173.50
2018-11-11T04:25:04.637Z,167.70
2018-11-11T04:25:39.937Z,196.00
2018-11-11T04:26:16.099Z,202.20
2018-11-11T04:26:51.303Z,177.97
2018-11-11T04:27:27.238Z,195.05
2018-11-11T04:28:02.578Z,184.72
2018-11-11T04:28:38.118Z,191.20
2018-11-11T04:29:13.298Z,207.85
2018-11-11T04:29:48.459Z,214.10
2018-11-11T04:30:23.781Z,203.40
2018-11-11T04:30:59.337Z,209.40
2018-11-11T04:31:35.217Z,199.80
2018-11-11T04:32:10.798Z,173.30
2018-11-11T04:32:46.217Z,177.53
2018-11-11T04:33:21.218Z,182.55
2018-11-11T04:33:56.398Z,263.02
2018-11-11T04:34:31.646Z,223.45
2018-11-11T04:35:07.119Z,259.20
2018-11-11T04:35:42.538Z,242.60
2018-11-11T04:36:17.659Z,234.75
2018-11-11T04:36:52.746Z,235.40
2018-11-11T04:37:28.145Z,230.05
2018-11-11T04:38:03.237Z,219.75
2018-11-11T04:38:38.777Z,206.70
2018-11-11T04:39:14.104Z,212.90
2018-11-11T04:39:49.314Z,186.97
2018-11-11T04:40:24.338Z,206.05
2018-11-11T04:40:59.579Z,223.35
2018-11-11T04:41:34.718Z,221.32
2018-11-11T04:42:10.038Z,240.12
2018-11-11T04:42:45.679Z,249.00
2018-11-11T04:43:21.378Z,245.67
2018-11-11T04:43:59.206Z,248.13
2018-11-11T04:44:35.278Z,299.25
2018-11-11T04:46:14.413Z,277.13
2018-11-11T04:46:49.470Z,340.68
2018-11-11T04:47:24.897Z,324.77
2018-11-11T04:47:59.678Z,308.63
2018-11-11T04:48:34.739Z,279.57
2018-11-11T04:49:09.777Z,300.18
2018-11-11T04:49:44.698Z,228.58
2018-11-11T04:50:19.839Z,256.73
2018-11-11T04:50:54.738Z,210.30
2018-11-11T04:51:29.617Z,211.07
2018-11-11T04:52:04.467Z,209.40
2018-11-11T04:52:39.261Z,197.00
2018-11-11T04:53:13.846Z,208.38
2018-11-11T04:53:48.617Z,220.20
2018-11-11T04:54:23.279Z,189.32
2018-11-11T04:54:57.798Z,171.80
2018-11-11T04:55:32.358Z,195.22
2018-11-11T04:56:06.919Z,189.13
2018-11-11T04:56:41.561Z,175.95
2018-11-11T04:57:16.120Z,146.18
2018-11-11T04:57:50.998Z,178.80
2018-11-11T04:58:25.579Z,144.77
2018-11-11T04:59:00.263Z,153.82
2018-11-11T04:59:35.590Z,162.88
2018-11-11T05:00:12.337Z,159.10
2018-11-11T05:00:47.198Z,155.82
2018-11-11T05:01:21.789Z,156.70
2018-11-11T05:01:56.446Z,175.22
2018-11-11T05:02:31.039Z,161.77
2018-11-11T05:03:06.278Z,151.82
2018-11-11T05:03:40.882Z,172.50
2018-11-11T05:04:16.238Z,182.22
2018-11-11T05:04:51.139Z,204.03
2018-11-11T05:05:25.727Z,164.80
2018-11-11T05:06:00.383Z,173.45
2018-11-11T05:06:35.337Z,169.57
2018-11-11T05:07:11.019Z,168.97
2018-11-11T05:07:46.251Z,223.68
2018-11-11T05:08:21.378Z,242.80
2018-11-11T05:08:56.038Z,241.33
2018-11-11T05:09:31.298Z,208.43
2018-11-11T05:10:06.718Z,193.75
2018-11-11T05:10:41.559Z,199.50
2018-11-11T05:11:17.357Z,197.82
2018-11-11T05:11:52.418Z,190.20
2018-11-11T05:12:27.705Z,201.73
2018-11-11T05:13:02.958Z,206.87
2018-11-11T05:13:38.258Z,182.37
2018-11-11T05:14:13.818Z,170.72
2018-11-11T05:14:49.201Z,171.85
2018-11-11T05:15:24.899Z,162.27
2018-11-11T05:16:01.139Z,163.22
2018-11-11T05:16:36.578Z,173.02
2018-11-11T05:17:11.806Z,171.77
2018-11-11T05:17:47.285Z,165.77
2018-11-11T05:18:22.545Z,162.40
2018-11-11T05:18:57.686Z,211.28
2018-11-11T05:19:32.925Z,224.25
2018-11-11T05:20:09.378Z,190.43
2018-11-11T05:20:44.498Z,213.22
2018-11-11T05:21:19.857Z,203.40
2018-11-11T05:21:55.211Z,220.17
2018-11-11T05:22:30.366Z,271.20
2018-11-11T05:23:07.378Z,219.90
2018-11-11T05:23:42.886Z,200.93
2018-11-11T05:24:17.941Z,194.43
2018-11-11T05:24:56.185Z,166.75
2018-11-11T05:25:31.718Z,166.40
2018-11-11T05:26:06.997Z,167.77
2018-11-11T05:26:41.877Z,151.05
2018-11-11T05:27:18.046Z,134.40
2018-11-11T05:27:53.078Z,192.98
2018-11-11T05:28:27.878Z,207.45
2018-11-11T05:29:03.597Z,250.50
2018-11-11T05:29:38.517Z,202.80
2018-11-11T05:30:14.300Z,169.22
2018-11-11T05:30:49.544Z,168.90
2018-11-11T05:31:24.799Z,165.20
2018-11-11T05:32:00.027Z,178.70
2018-11-11T05:32:35.057Z,191.00
2018-11-11T05:33:10.160Z,170.30
2018-11-11T05:33:45.839Z,157.40
2018-11-11T05:34:20.777Z,157.57
2018-11-11T05:34:55.739Z,215.82
2018-11-11T05:35:30.978Z,176.93
2018-11-11T05:36:06.587Z,229.28
2018-11-11T05:36:41.467Z,223.68
2018-11-11T05:37:16.658Z,221.60
2018-11-11T05:37:51.919Z,263.60
2018-11-11T05:38:27.147Z,261.75
2018-11-11T05:39:02.126Z,233.80
2018-11-11T05:39:36.979Z,176.75
2018-11-11T05:40:12.886Z,170.62
2018-11-11T05:40:47.798Z,185.50
2018-11-11T05:41:22.817Z,211.72
2018-11-11T05:41:57.697Z,204.28
2018-11-11T05:42:32.766Z,195.22
2018-11-11T05:43:07.738Z,184.70
2018-11-11T05:43:42.499Z,208.55
2018-11-11T05:44:17.638Z,175.03
2018-11-11T05:44:52.645Z,152.53
2018-11-11T05:45:27.599Z,152.38
2018-11-11T05:46:02.299Z,135.12
2018-11-11T05:46:37.238Z,136.22
2018-11-11T05:47:12.298Z,140.37
2018-11-11T05:47:47.198Z,143.55
2018-11-11T05:48:22.038Z,155.15
2018-11-11T05:50:00.098Z,164.97
2018-11-11T05:50:35.057Z,143.35
2018-11-11T05:51:09.939Z,125.60
2018-11-11T05:51:47.945Z,131.80
2018-11-11T05:52:22.846Z,146.87
2018-11-11T05:52:57.418Z,142.85
2018-11-11T05:53:32.481Z,142.40
2018-11-11T05:54:07.637Z,119.20
2018-11-11T05:54:42.478Z,126.62
2018-11-11T05:55:17.217Z,131.50
2018-11-11T05:55:52.146Z,139.05
2018-11-11T05:56:27.118Z,167.77
2018-11-11T05:57:02.225Z,159.55
2018-11-11T05:57:37.462Z,151.95
2018-11-11T05:58:12.286Z,134.40
2018-11-11T05:58:47.185Z,138.62
2018-11-11T05:59:22.207Z,168.57
2018-11-11T05:59:57.258Z,133.15
2018-11-11T06:00:32.078Z,155.85
2018-11-11T06:01:07.386Z,130.40
2018-11-11T06:01:42.146Z,125.78
2018-11-11T06:02:17.157Z,131.05
2018-11-11T06:02:51.659Z,174.12
2018-11-11T06:03:26.646Z,193.10
2018-11-11T06:04:01.659Z,196.43
2018-11-11T06:05:39.539Z,222.05
2018-11-11T06:06:14.565Z,167.65
2018-11-11T06:06:49.445Z,161.15
2018-11-11T06:07:24.538Z,177.78
2018-11-11T06:07:59.338Z,219.30
2018-11-11T06:08:34.386Z,202.15
2018-11-11T06:09:10.957Z,222.12
2018-11-11T06:09:46.046Z,232.67
2018-11-11T06:10:20.839Z,231.07
2018-11-11T06:10:55.830Z,206.80
2018-11-11T06:11:30.677Z,211.55
2018-11-11T06:12:05.574Z,218.37
2018-11-11T06:12:40.338Z,218.27
2018-11-11T06:13:15.019Z,239.72
2018-11-11T06:13:49.825Z,208.07
2018-11-11T06:14:24.645Z,186.52
2018-11-11T06:14:59.687Z,201.62
2018-11-11T06:15:34.498Z,244.40
2018-11-11T06:16:09.405Z,281.05
2018-11-11T06:16:44.327Z,252.82
2018-11-11T06:17:19.377Z,200.82
2018-11-11T06:17:54.159Z,224.02
2018-11-11T06:18:29.137Z,183.90
2018-11-11T06:19:04.058Z,166.70
2018-11-11T06:19:39.026Z,178.15
2018-11-11T06:20:15.940Z,202.20
2018-11-11T06:20:50.805Z,168.40
2018-11-11T06:21:25.688Z,189.35
2018-11-11T06:22:00.679Z,184.15
2018-11-11T06:22:35.599Z,226.70
2018-11-11T06:23:10.941Z,206.45
2018-11-11T06:23:46.119Z,210.97
2018-11-11T06:24:21.241Z,181.12
2018-11-11T06:24:56.351Z,163.57
2018-11-11T06:25:31.478Z,139.15
2018-11-11T06:26:06.746Z,153.47
2018-11-11T06:26:41.657Z,169.57
2018-11-11T06:27:16.652Z,176.32
2018-11-11T06:27:51.759Z,199.87
2018-11-11T06:28:27.083Z,225.28
2018-11-11T06:29:02.285Z,174.75
2018-11-11T06:29:37.466Z,150.62
2018-11-11T06:30:13.041Z,124.45
2018-11-11T06:30:48.559Z,103.60
2018-11-11T06:31:23.427Z,125.22
2018-11-11T06:32:01.318Z,129.90
2018-11-11T06:32:36.439Z,143.62
2018-11-11T06:33:11.439Z,148.28
2018-11-11T06:33:46.618Z,126.22
2018-11-11T06:34:21.659Z,121.28
2018-11-11T06:34:56.758Z,139.03
2018-11-11T06:35:31.798Z,132.12
2018-11-11T06:36:07.012Z,148.28
2018-11-11T06:36:42.039Z,157.52
2018-11-11T06:37:17.058Z,156.85
2018-11-11T06:37:52.499Z,131.22
2018-11-11T06:38:34.138Z,137.62
2018-11-11T06:39:11.029Z,132.60
2018-11-11T06:39:46.338Z,139.72
2018-11-11T06:40:21.377Z,137.10
2018-11-11T06:40:56.418Z,154.03
2018-11-11T06:41:31.347Z,115.90
2018-11-11T06:42:06.698Z,96.60
2018-11-11T06:42:41.998Z,118.42
2018-11-11T06:43:16.899Z,96.78
2018-11-11T06:43:52.087Z,104.72
2018-11-11T06:44:27.179Z,106.80
2018-11-11T06:45:02.238Z,120.87
2018-11-11T06:45:37.418Z,112.15
2018-11-11T06:46:12.657Z,100.07
2018-11-11T06:46:48.079Z,113.72
2018-11-11T06:47:23.338Z,119.72
2018-11-11T06:47:58.641Z,115.28
2018-11-11T06:48:33.985Z,106.52
2018-11-11T06:49:08.959Z,113.17
2018-11-11T06:49:44.019Z,102.87
2018-11-11T06:50:19.279Z,119.13
2018-11-11T06:50:54.238Z,141.55
2018-11-11T06:51:29.558Z,164.93
2018-11-11T06:52:04.725Z,135.80
2018-11-11T06:52:40.318Z,121.37
2018-11-11T06:53:15.638Z,117.62
2018-11-11T06:53:50.999Z,121.17
2018-11-11T06:54:26.011Z,93.72
2018-11-11T06:55:01.141Z,107.35
2018-11-11T06:55:36.199Z,112.22
2018-11-11T06:56:11.100Z,101.55
2018-11-11T06:56:46.219Z,100.30
2018-11-11T06:57:20.997Z,106.63
2018-11-11T06:57:55.813Z,113.52
2018-11-11T06:58:30.799Z,98.00
2018-11-11T06:59:06.080Z,122.37
2018-11-11T06:59:41.506Z,110.40
2018-11-11T07:00:17.038Z,90.40
2018-11-11T07:00:52.299Z,79.03
2018-11-11T07:01:27.606Z,80.97
2018-11-11T07:02:02.746Z,81.65
2018-11-11T07:02:40.498Z,81.97
2018-11-11T07:03:26.199Z,74.50
2018-11-11T07:04:02.585Z,73.05
2018-11-11T07:04:37.640Z,78.45
2018-11-11T07:05:13.085Z,80.28
2018-11-11T07:05:48.257Z,77.58
2018-11-11T07:06:23.760Z,85.03
2018-11-11T07:06:59.097Z,86.00
2018-11-11T07:07:34.592Z,84.47
2018-11-11T07:08:10.058Z,84.32
2018-11-11T07:08:45.797Z,80.00
2018-11-11T07:09:20.837Z,82.35
2018-11-11T07:09:56.098Z,91.60
2018-11-11T07:10:31.958Z,103.62
2018-11-11T07:11:07.358Z,93.85
2018-11-11T07:11:42.637Z,107.87
2018-11-11T07:12:17.958Z,93.15
2018-11-11T07:12:53.517Z,111.47
2018-11-11T07:13:28.597Z,89.42
2018-11-11T07:14:03.869Z,84.55
2018-11-11T07:14:38.998Z,87.57
2018-11-11T07:15:13.946Z,82.90
2018-11-11T07:15:48.985Z,86.47
2018-11-11T07:16:24.017Z,85.60
2018-11-11T07:16:58.978Z,88.97
2018-11-11T07:17:33.840Z,76.15
2018-11-11T07:18:08.738Z,83.37
2018-11-11T07:18:44.598Z,71.33
2018-11-11T07:19:19.900Z,72.03
2018-11-11T07:19:54.580Z,83.95
2018-11-11T07:20:29.558Z,80.75
2018-11-11T07:21:04.744Z,85.05
2018-11-11T07:21:39.979Z,76.90
2018-11-11T07:22:15.639Z,92.17
2018-11-11T07:22:50.857Z,82.35
2018-11-11T07:23:25.959Z,75.05
2018-11-11T07:24:01.425Z,77.05